Time;durP1;ratioP1;P1;durP2;ratioP2;P2;SDS_P1;SDS_P2;PMS_P1;PMS_P2;Temp;Humidity;BMP_temperature;BMP_pressure;BME280_temperature;BME280_humidity;BME280_pressure;Samples;Min_cycle;Max_cycle;Signal;HPM_P1;HPM_P2
2022/01/17 00:01:42;;;;;;;14.20;3.55;;;;;;;4.79;100.00;102710.09;6318686;22;20014;-75
2022/01/17 00:04:11;;;;;;;22.23;4.18;;;;;;;4.83;100.00;102713.78;6304546;22;20018;-75
2022/01/17 00:06:43;;;;;;;15.97;4.17;;;;;;;4.85;100.00;102714.78;6312812;22;20022;-75
2022/01/17 00:09:12;;;;;;;30.88;5.15;;;;;;;4.87;100.00;102713.16;6298564;22;20014;-75
2022/01/17 00:11:44;;;;;;;13.77;3.22;;;;;;;4.87;100.00;102724.50;6342781;22;20010;-76
2022/01/17 00:14:17;;;;;;;17.83;3.53;;;;;;;4.87;100.00;102714.03;6314464;22;20010;-75
2022/01/17 00:16:52;;;;;;;16.27;3.47;;;;;;;4.88;100.00;102721.06;6287781;22;20030;-75
2022/01/17 00:21:52;;;;;;;21.30;3.00;;;;;;;4.89;100.00;102709.81;6365841;22;20025;-75
2022/01/17 00:24:21;;;;;;;20.38;3.58;;;;;;;4.87;100.00;102710.53;6270453;22;20128;-75
2022/01/17 00:26:52;;;;;;;26.25;3.90;;;;;;;4.88;100.00;102709.75;6337295;22;20022;-75
2022/01/17 00:29:26;;;;;;;20.15;3.55;;;;;;;4.88;100.00;102722.81;6293346;22;20014;-75
2022/01/17 00:31:56;;;;;;;21.13;3.67;;;;;;;4.88;100.00;102723.69;6331787;22;20022;-74
2022/01/17 00:34:25;;;;;;;39.95;6.10;;;;;;;4.89;100.00;102717.63;6328048;22;20147;-75
2022/01/17 00:36:54;;;;;;;34.55;4.68;;;;;;;4.91;100.00;102720.34;6335300;22;20470;-75
2022/01/17 00:39:27;;;;;;;25.98;4.10;;;;;;;4.89;100.00;102722.84;6326837;22;20049;-75
2022/01/17 00:41:57;;;;;;;29.08;4.68;;;;;;;4.87;100.00;102716.66;6368700;22;20025;-75
2022/01/17 00:44:25;;;;;;;16.65;3.25;;;;;;;4.87;100.00;102715.75;6341913;22;20562;-75
2022/01/17 00:46:54;;;;;;;19.95;3.78;;;;;;;4.85;100.00;102715.66;6275911;22;20010;-75
2022/01/17 00:49:25;;;;;;;12.55;3.28;;;;;;;4.87;100.00;102698.38;6338062;22;20147;-75
2022/01/17 00:51:53;;;;;;;15.63;2.92;;;;;;;4.88;100.00;102712.34;6311419;22;20017;-75
2022/01/17 00:54:22;;;;;;;25.60;3.33;;;;;;;4.88;100.00;102713.25;6272218;22;20018;-75
2022/01/17 00:56:50;;;;;;;20.17;3.95;;;;;;;4.89;100.00;102719.34;6336891;22;20018;-75
2022/01/17 00:59:19;;;;;;;24.27;4.40;;;;;;;4.90;100.00;102713.34;6288891;22;20033;-75
2022/01/17 01:01:47;;;;;;;14.57;3.33;;;;;;;4.89;100.00;102719.34;6317243;22;20022;-75
2022/01/17 01:04:16;;;;;;;24.15;4.28;;;;;;;4.89;100.00;102722.84;6339867;22;20014;-76
2022/01/17 01:06:46;;;;;;;18.92;3.88;;;;;;;4.87;100.00;102719.25;6363627;22;20355;-74
2022/01/17 01:09:14;;;;;;;16.85;2.47;;;;;;;4.87;100.00;102719.25;6339139;22;20041;-74
2022/01/17 01:11:42;;;;;;;22.90;4.22;;;;;;;4.87;100.00;102713.16;6358626;22;20026;-74
2022/01/17 01:14:11;;;;;;;15.40;4.07;;;;;;;4.84;100.00;102707.78;6275289;22;20025;-75
2022/01/17 01:16:40;;;;;;;21.58;4.13;;;;;;;4.85;100.00;102710.44;6343938;22;20025;-75
2022/01/17 01:19:26;;;;;;;18.48;3.00;;;;;;;4.84;100.00;102707.78;6365797;22;20147;-75
2022/01/17 01:27:38;;;;;;;18.25;3.45;;;;;;;4.82;100.00;102709.38;6312218;22;20026;-75
2022/01/17 01:30:10;;;;;;;20.63;3.55;;;;;;;4.75;100.00;102695.09;6365970;22;20022;-74
2022/01/17 01:32:48;;;;;;;20.13;3.63;;;;;;;4.71;100.00;102703.56;6318090;22;20010;-74
2022/01/17 01:35:19;;;;;;;13.93;3.20;;;;;;;4.66;100.00;102703.28;6331606;22;20010;-75
2022/01/17 01:37:48;;;;;;;11.32;3.28;;;;;;;4.65;100.00;102705.78;6333158;22;20018;-75
2022/01/17 01:40:19;;;;;;;23.50;4.38;;;;;;;4.63;100.00;102705.75;6340382;22;20214;-75
2022/01/17 01:42:51;;;;;;;17.65;3.40;;;;;;;4.59;100.00;102708.97;6328797;22;20355;-75
2022/01/17 01:45:21;;;;;;;23.95;3.08;;;;;;;4.59;100.00;102708.97;6339698;22;20014;-76
2022/01/17 01:47:50;;;;;;;23.37;3.63;;;;;;;4.57;100.00;102710.59;6337592;22;20356;-74
2022/01/17 01:50:19;;;;;;;17.00;4.22;;;;;;;4.57;100.00;102701.84;6313511;22;20018;-75
2022/01/17 01:52:47;;;;;;;21.80;3.92;;;;;;;4.57;100.00;102717.53;6340300;22;20468;-75
2022/01/17 01:55:21;;;;;;;37.58;4.72;;;;;;;4.58;100.00;102714.13;6363194;22;20302;-75
2022/01/17 01:57:50;;;;;;;24.65;3.75;;;;;;;4.57;100.00;102707.09;6303497;22;20329;-75
2022/01/17 02:00:19;;;;;;;22.75;3.80;;;;;;;4.56;100.00;102711.41;6311088;22;20238;-75
2022/01/17 02:02:47;;;;;;;20.65;3.83;;;;;;;4.56;100.00;102715.75;6280214;22;20023;-75
2022/01/17 02:05:16;;;;;;;21.40;3.15;;;;;;;4.54;100.00;102715.66;6287996;22;20239;-75
2022/01/17 02:07:45;;;;;;;26.23;4.55;;;;;;;4.54;100.00;102718.25;6299290;22;20447;-75
2022/01/17 02:10:15;;;;;;;22.83;3.47;;;;;;;4.54;100.00;102727.78;6297809;22;20139;-75
2022/01/17 02:12:44;;;;;;;19.87;3.93;;;;;;;4.51;100.00;102733.75;6292974;22;20064;-75
2022/01/17 02:15:15;;;;;;;21.50;3.75;;;;;;;4.49;100.00;102738.88;6275430;22;20372;-75
2022/01/17 02:17:53;;;;;;;19.27;3.33;;;;;;;4.51;100.00;102746.78;6275464;22;20479;-75
2022/01/17 02:20:44;;;;;;;18.48;3.30;;;;;;;4.52;100.00;102743.38;6304389;22;20488;-75
2022/01/17 02:23:15;;;;;;;21.05;3.88;;;;;;;4.52;100.00;102750.28;6360282;22;20475;-75
2022/01/17 02:25:44;;;;;;;;;;;;;;;4.50;100.00;102726.72;6334069;22;20019;-75
2022/01/17 02:28:12;;;;;;;15.77;2.85;;;;;;;4.48;100.00;102729.25;6318475;22;19949;-75
2022/01/17 02:30:41;;;;;;;15.90;3.35;;;;;;;4.47;100.00;102724.81;6342815;22;20015;-75
2022/01/17 02:33:09;;;;;;;18.80;3.72;;;;;;;4.47;100.00;102726.53;6362899;22;20499;-75
2022/01/17 02:35:38;;;;;;;10.05;2.75;;;;;;;4.46;100.00;102714.28;6343268;22;20015;-75
2022/01/17 02:38:06;;;;;;;20.35;3.33;;;;;;;4.45;100.00;102709.88;6328468;22;20029;-75
2022/01/17 02:40:36;;;;;;;16.63;2.97;;;;;;;4.44;100.00;102718.53;6307520;22;20025;-75
2022/01/17 02:43:07;;;;;;;16.63;3.67;;;;;;;4.43;100.00;102708.91;6290839;22;20017;-76
2022/01/17 02:46:24;;;;;;;;;;;;;;;4.41;100.00;102706.19;6318671;22;20339;-74
2022/01/17 02:48:35;;;;;;;17.15;3.58;;;;;;;4.39;100.00;102712.16;6338341;22;19915;-75
2022/01/17 02:51:07;;;;;;;20.58;3.65;;;;;;;4.38;100.00;102710.34;6367132;22;20135;-75
2022/01/17 02:53:36;;;;;;;17.17;3.22;;;;;;;4.36;100.00;102704.13;6373021;22;20018;-75
2022/01/17 02:56:07;;;;;;;15.82;3.22;;;;;;;4.33;100.00;102686.59;6297502;22;20021;-74
2022/01/17 02:58:40;;;;;;;14.82;3.67;;;;;;;4.33;100.00;102689.22;6310847;22;20018;-75
2022/01/17 03:01:18;;;;;;;18.55;3.50;;;;;;;4.32;100.00;102684.78;6290974;22;20380;-75
2022/01/17 03:03:47;;;;;;;20.38;3.75;;;;;;;4.29;100.00;102677.69;6365819;22;20082;-75
2022/01/17 03:06:16;;;;;;;25.00;4.47;;;;;;;4.29;100.00;102695.03;6245323;22;20018;-75
2022/01/17 03:08:46;;;;;;;16.63;3.45;;;;;;;4.27;100.00;102692.34;6313968;22;20015;-75
2022/01/17 03:11:17;;;;;;;24.38;3.75;;;;;;;4.30;100.00;102705.56;6335547;22;20019;-75
2022/01/17 03:13:47;;;;;;;26.50;3.55;;;;;;;4.33;100.00;102714.38;6335983;22;20022;-75
2022/01/17 03:16:17;;;;;;;26.48;3.80;;;;;;;4.34;100.00;102708.38;6358258;22;20018;-75
2022/01/17 03:18:50;;;;;;;28.42;4.00;;;;;;;4.37;100.00;102721.59;6367241;22;20029;-75
2022/01/17 03:21:20;;;;;;;20.70;3.03;;;;;;;4.40;100.00;102729.59;6329605;22;20019;-74
2022/01/17 03:23:50;;;;;;;19.05;3.75;;;;;;;4.42;100.00;102734.13;6371533;22;20444;-74
2022/01/17 03:26:22;;;;;;;21.65;3.45;;;;;;;4.45;100.00;102738.59;6275335;22;20037;-74
2022/01/17 03:28:51;;;;;;;25.38;3.85;;;;;;;4.47;100.00;102726.53;6371042;22;20018;-74
2022/01/17 03:31:21;;;;;;;25.80;4.80;;;;;;;4.48;100.00;102720.53;6354742;22;20238;-75
2022/01/17 03:33:50;;;;;;;17.75;3.47;;;;;;;4.52;100.00;102724.19;6370304;22;20447;-74
2022/01/17 03:36:18;;;;;;;17.55;2.92;;;;;;;4.52;100.00;102722.50;6314926;22;20014;-75
2022/01/17 03:38:47;;;;;;;21.65;3.60;;;;;;;4.54;100.00;102728.72;6312473;22;20041;-74
2022/01/17 03:41:18;;;;;;;21.15;3.53;;;;;;;4.55;100.00;102725.25;6336497;22;20018;-74
2022/01/17 03:43:47;;;;;;;21.73;2.80;;;;;;;4.57;100.00;102726.25;6343233;22;20018;-74
2022/01/17 03:46:15;;;;;;;15.00;2.63;;;;;;;4.59;100.00;102711.56;6299399;22;20471;-74
2022/01/17 03:48:44;;;;;;;15.05;3.15;;;;;;;4.61;100.00;102709.06;6338358;22;20474;-74
2022/01/17 03:51:12;;;;;;;17.75;3.78;;;;;;;4.63;100.00;102710.03;6339719;22;20337;-75
2022/01/17 03:53:41;;;;;;;20.30;4.63;;;;;;;4.64;100.00;102706.63;6317560;22;20017;-75
2022/01/17 03:56:09;;;;;;;24.67;3.42;;;;;;;4.65;100.00;102713.63;6308221;22;20010;-75
2022/01/17 03:58:38;;;;;;;16.88;3.20;;;;;;;4.65;100.00;102706.72;6300219;22;20029;-75
2022/01/17 04:01:08;;;;;;;18.40;3.65;;;;;;;4.66;100.00;102698.06;6326153;22;20143;-75
2022/01/17 04:03:38;;;;;;;20.77;2.92;;;;;;;4.66;100.00;102689.34;6344132;22;20021;-74
2022/01/17 04:06:07;;;;;;;14.15;3.40;;;;;;;4.67;100.00;102691.16;6338755;22;20146;-75
2022/01/17 04:08:35;;;;;;;16.08;3.08;;;;;;;4.68;100.00;102703.38;6267272;22;20022;-75
2022/01/17 04:11:04;;;;;;;15.80;3.47;;;;;;;4.69;100.00;102707.81;6298516;22;20021;-75
2022/01/17 04:13:33;;;;;;;15.25;3.67;;;;;;;4.69;100.00;102700.84;6317497;22;20022;-75
2022/01/17 04:16:02;;;;;;;19.52;3.60;;;;;;;4.71;100.00;102716.63;6340022;22;20006;-75
2022/01/17 04:18:33;;;;;;;18.95;3.67;;;;;;;4.72;100.00;102723.63;6292454;22;20029;-75
2022/01/17 04:21:03;;;;;;;13.70;2.88;;;;;;;4.74;100.00;102710.66;6314476;22;20025;-75
2022/01/17 04:23:32;;;;;;;16.42;3.22;;;;;;;4.75;100.00;102721.19;6309619;22;20014;-75
2022/01/17 04:26:00;;;;;;;16.73;3.13;;;;;;;4.76;100.00;102722.09;6338966;22;20010;-75
2022/01/17 04:28:30;;;;;;;22.23;3.53;;;;;;;4.75;100.00;102721.19;6337148;22;20021;-75
2022/01/17 04:30:59;;;;;;;26.70;5.22;;;;;;;4.77;100.00;102729.13;6340441;22;20436;-74
2022/01/17 04:33:28;;;;;;;16.80;3.13;;;;;;;4.78;100.00;102731.84;6329188;22;20385;-74
2022/01/17 04:35:56;;;;;;;18.60;3.08;;;;;;;4.79;100.00;102731.00;6315430;22;20021;-74
2022/01/17 04:38:25;;;;;;;24.08;3.28;;;;;;;4.79;100.00;102720.56;6337298;22;20219;-75
2022/01/17 04:41:02;;;;;;;16.10;2.30;;;;;;;4.80;100.00;102731.91;6290918;22;20003;-77
2022/01/17 04:46:09;;;;;;;18.05;3.80;;;;;;;4.81;100.00;102718.94;6329399;22;20254;-74
2022/01/17 04:48:38;;;;;;;25.92;3.78;;;;;;;4.82;100.00;102719.81;6303435;22;20084;-75
2022/01/17 04:51:08;;;;;;;25.65;4.03;;;;;;;4.82;100.00;102723.34;6297637;22;20214;-75
2022/01/17 04:53:38;;;;;;;18.60;3.42;;;;;;;4.83;100.00;102721.63;6342130;22;20033;-74
2022/01/17 04:56:06;;;;;;;21.88;4.05;;;;;;;4.84;100.00;102724.34;6327100;22;20238;-74
2022/01/17 04:58:34;;;;;;;20.35;4.32;;;;;;;4.86;100.00;102720.09;6337732;22;20018;-75
2022/01/17 05:01:03;;;;;;;15.00;3.47;;;;;;;4.87;100.00;102711.44;6312941;22;20018;-75
2022/01/17 05:03:31;;;;;;;21.30;3.97;;;;;;;4.89;100.00;102708.91;6291330;22;20011;-75
2022/01/17 05:06:00;;;;;;;23.17;4.88;;;;;;;4.91;100.00;102706.38;6291267;22;20351;-75
2022/01/17 05:08:28;;;;;;;21.40;3.60;;;;;;;4.93;100.00;102721.31;6342619;22;20026;-75
2022/01/17 05:10:57;;;;;;;17.00;3.83;;;;;;;4.93;100.00;102716.09;6311272;22;20459;-75
2022/01/17 05:13:32;;;;;;;15.85;4.28;;;;;;;4.95;100.00;102714.47;6313138;22;20549;-75
2022/01/17 05:16:08;;;;;;;21.40;4.70;;;;;;;4.96;100.00;102723.22;6287003;22;20025;-75
2022/01/17 05:21:05;;;;;;;18.33;3.90;;;;;;;5.01;100.00;102700.84;6298674;22;20026;-76
2022/01/17 05:23:34;;;;;;;26.08;3.95;;;;;;;5.03;100.00;102712.31;6316684;22;20022;-75
2022/01/17 05:26:02;;;;;;;27.30;4.60;;;;;;;5.06;100.00;102707.25;6329877;22;20033;-75
2022/01/17 05:28:31;;;;;;;24.70;5.15;;;;;;;5.09;100.00;102707.41;6311399;22;20029;-75
2022/01/17 05:31:00;;;;;;;28.08;3.92;;;;;;;5.10;100.00;102701.34;6368128;22;20022;-74
2022/01/17 05:33:30;;;;;;;27.27;5.25;;;;;;;5.13;100.00;102700.66;6370130;22;20022;-74
2022/01/17 05:36:01;;;;;;;27.52;3.55;;;;;;;5.16;100.00;102708.63;6330326;22;20026;-74
2022/01/17 05:38:29;;;;;;;25.45;5.63;;;;;;;5.18;100.00;102717.47;6326114;22;20026;-74
2022/01/17 05:40:58;;;;;;;23.85;4.43;;;;;;;5.21;100.00;102720.25;6366812;22;20014;-75
2022/01/17 05:43:26;;;;;;;23.58;5.05;;;;;;;5.21;100.00;102725.47;6274986;22;20524;-74
2022/01/17 05:45:55;;;;;;;23.75;4.68;;;;;;;5.23;100.00;102724.75;6307084;22;20356;-75
2022/01/17 05:48:23;;;;;;;22.00;4.22;;;;;;;5.24;100.00;102715.22;6274358;22;20233;-74
2022/01/17 05:50:52;;;;;;;23.85;5.57;;;;;;;5.24;100.00;102692.56;6364991;22;20021;-74
2022/01/17 05:53:22;;;;;;;21.40;4.97;;;;;;;5.25;100.00;102690.84;6299025;22;20238;-75
2022/01/17 05:55:51;;;;;;;26.15;4.57;;;;;;;5.25;100.00;102696.06;6342623;22;20025;-75
2022/01/17 05:58:20;;;;;;;33.58;5.72;;;;;;;5.25;100.00;102691.78;6328195;22;20681;-75
2022/01/17 06:00:48;;;;;;;22.23;4.70;;;;;;;5.26;100.00;102695.28;6307054;22;20038;-75
2022/01/17 06:03:17;;;;;;;24.10;6.22;;;;;;;5.27;100.00;102705.81;6308013;22;20290;-75
2022/01/17 06:05:45;;;;;;;35.00;5.88;;;;;;;5.30;100.00;102706.81;6302923;22;20468;-75
2022/01/17 06:08:14;;;;;;;23.63;5.03;;;;;;;5.31;100.00;102701.63;6315642;22;20045;-76
2022/01/17 06:10:42;;;;;;;28.00;5.45;;;;;;;5.33;100.00;102707.88;6312217;22;20015;-75
2022/01/17 06:13:14;;;;;;;22.67;5.18;;;;;;;5.34;100.00;102706.16;6298323;22;20139;-75
2022/01/17 06:15:43;;;;;;;31.92;5.40;;;;;;;5.36;100.00;102710.63;6332147;22;20022;-75
2022/01/17 06:18:11;;;;;;;28.73;5.22;;;;;;;5.37;100.00;102714.13;6323698;22;20218;-75
2022/01/17 06:20:43;;;;;;;22.00;4.80;;;;;;;5.38;100.00;102709.00;6301154;22;20015;-75
2022/01/17 06:23:11;;;;;;;21.30;4.63;;;;;;;5.40;100.00;102701.25;6316691;22;20100;-75
2022/01/17 06:25:40;;;;;;;28.83;6.10;;;;;;;5.41;100.00;102695.22;6337036;22;20019;-75
2022/01/17 06:28:09;;;;;;;30.17;4.47;;;;;;;5.43;100.00;102709.25;6301620;22;20731;-75
2022/01/17 06:30:37;;;;;;;27.40;4.40;;;;;;;5.45;100.00;102710.25;6338587;22;20456;-75
2022/01/17 06:33:06;;;;;;;31.00;7.13;;;;;;;5.45;100.00;102700.69;6268380;22;20456;-75
2022/01/17 06:35:35;;;;;;;34.10;5.05;;;;;;;5.45;100.00;102705.91;6338630;22;20015;-75
2022/01/17 06:38:03;;;;;;;38.60;5.68;;;;;;;5.47;100.00;102712.13;6287122;22;20023;-75
2022/01/17 06:40:32;;;;;;;30.55;5.95;;;;;;;5.48;100.00;102702.53;6312647;22;20344;-75
2022/01/17 06:43:00;;;;;;;29.17;5.72;;;;;;;5.51;100.00;102707.94;6303528;22;20014;-75
2022/01/17 06:45:29;;;;;;;39.70;7.10;;;;;;;5.51;100.00;102713.19;6328223;22;20448;-75
2022/01/17 06:47:57;;;;;;;23.60;5.28;;;;;;;5.53;100.00;102728.97;6276439;22;20481;-75
2022/01/17 06:50:25;;;;;;;32.92;5.38;;;;;;;5.54;100.00;102751.66;6331346;22;20034;-75
2022/01/17 06:52:54;;;;;;;26.40;5.00;;;;;;;5.55;100.00;102758.72;6358204;22;20376;-76
2022/01/17 06:55:23;;;;;;;41.17;6.22;;;;;;;5.56;100.00;102769.25;6287277;22;20018;-75
2022/01/17 06:57:52;;;;;;;24.15;4.65;;;;;;;5.59;100.00;102786.81;6339315;22;20037;-75
2022/01/17 07:00:20;;;;;;;33.72;5.85;;;;;;;5.59;100.00;102803.41;6318206;22;20022;-75
2022/01/17 07:02:53;;;;;;;40.90;6.78;;;;;;;5.61;100.00;102825.34;6300046;22;20018;-75
2022/01/17 07:05:23;;;;;;;37.10;6.07;;;;;;;5.65;100.00;102819.47;6309252;22;20025;-75
2022/01/17 07:07:51;;;;;;;41.78;5.72;;;;;;;5.68;100.00;102795.16;6340045;22;20448;-74
2022/01/17 07:10:25;;;;;;;35.17;6.05;;;;;;;5.70;100.00;102764.75;6286976;22;20022;-75
2022/01/17 07:12:54;;;;;;;33.47;6.78;;;;;;;5.71;100.00;102731.66;6311151;22;20568;-75
2022/01/17 07:15:23;;;;;;;36.05;5.10;;;;;;;5.72;100.00;102736.97;6338915;22;20019;-75
2022/01/17 07:17:51;;;;;;;31.42;4.82;;;;;;;5.74;100.00;102737.06;6353117;22;20049;-75
2022/01/17 07:20:19;;;;;;;31.83;5.63;;;;;;;5.75;100.00;102731.91;6300939;22;20360;-75
2022/01/17 07:22:48;;;;;;;34.67;6.88;;;;;;;5.77;100.00;102727.66;6355235;22;20419;-75
2022/01/17 07:25:16;;;;;;;39.67;5.03;;;;;;;5.79;100.00;102746.94;6302252;22;20352;-74
2022/01/17 07:27:45;;;;;;;34.45;5.68;;;;;;;5.82;100.00;102746.19;6308850;22;20116;-75
2022/01/17 07:30:14;;;;;;;34.70;6.63;;;;;;;5.85;100.00;102759.44;6350467;22;20022;-75
2022/01/17 07:32:42;;;;;;;31.98;5.32;;;;;;;5.86;100.00;102762.16;6330668;22;20018;-75
2022/01/17 07:35:11;;;;;;;33.60;6.53;;;;;;;5.91;100.00;102779.81;6306829;22;20034;-74
2022/01/17 07:37:40;;;;;;;30.27;6.03;;;;;;;5.93;100.00;102781.69;6337868;22;20022;-76
2022/01/17 07:40:09;;;;;;;35.80;5.55;;;;;;;5.96;100.00;102792.34;6292017;22;20352;-75
2022/01/17 07:42:38;;;;;;;44.25;6.45;;;;;;;5.97;100.00;102794.16;6323003;22;20500;-75
2022/01/17 07:45:15;;;;;;;40.47;6.20;;;;;;;6.00;100.00;102798.66;6292780;22;20030;-74
2022/01/17 07:47:56;;;;;;;;;;;;;;;6.02;100.00;102799.63;6296668;22;20022;-74
2022/01/17 07:50:25;;;;;;;36.00;5.80;;;;;;;6.03;100.00;102791.88;6292640;22;20240;-75
2022/01/17 07:52:54;;;;;;;34.97;6.30;;;;;;;6.06;100.00;102796.34;6274331;22;20022;-75
2022/01/17 07:55:23;;;;;;;34.40;6.95;;;;;;;6.09;100.00;102806.06;6369820;22;20465;-83
2022/01/17 07:57:53;;;;;;;37.33;5.97;;;;;;;6.12;100.00;102807.16;6298016;22;20294;-78
2022/01/17 08:00:22;;;;;;;30.17;6.07;;;;;;;6.14;100.00;102810.75;6262698;22;20493;-77
2022/01/17 08:02:58;;;;;;;35.80;5.40;;;;;;;6.19;100.00;102816.22;6299908;22;20218;-78
2022/01/17 08:05:27;;;;;;;41.17;7.60;;;;;;;6.21;100.00;102815.47;6312780;22;20019;-78
2022/01/17 08:07:55;;;;;;;30.80;6.07;;;;;;;6.22;100.00;102809.44;6314737;22;20135;-78
2022/01/17 08:10:24;;;;;;;30.33;6.47;;;;;;;6.27;100.00;102819.25;6313944;22;20344;-78
2022/01/17 08:12:52;;;;;;;30.10;5.75;;;;;;;6.29;100.00;102809.75;6325995;22;20502;-78
2022/01/17 08:15:21;;;;;;;37.13;6.25;;;;;;;6.31;100.00;102802.88;6367749;22;20455;-78
2022/01/17 08:17:50;;;;;;;39.60;6.63;;;;;;;6.34;100.00;102795.19;6266431;22;20026;-77
2022/01/17 08:20:19;;;;;;;33.00;8.35;;;;;;;6.36;100.00;102806.66;6313901;22;20014;-78
2022/01/17 08:22:48;;;;;;;47.47;8.63;;;;;;;6.38;100.00;102802.38;6308367;22;20127;-77
2022/01/17 08:25:17;;;;;;;39.83;7.72;;;;;;;6.39;100.00;102801.53;6344853;22;20026;-78
2022/01/17 08:27:45;;;;;;;44.17;9.20;;;;;;;6.40;100.00;102804.25;6318639;22;20467;-78
2022/01/17 08:30:17;;;;;;;44.08;7.47;;;;;;;6.42;100.00;102806.94;6318977;22;20014;-78
2022/01/17 08:33:05;;;;;;;43.10;7.97;;;;;;;6.44;100.00;102816.66;6324528;22;20018;-78
2022/01/17 08:35:34;;;;;;;31.10;6.30;;;;;;;6.48;100.00;102825.59;6364751;22;20026;-79
2022/01/17 08:38:03;;;;;;;39.92;7.60;;;;;;;6.49;100.00;102822.16;6342377;22;20236;-79
2022/01/17 08:40:32;;;;;;;30.52;6.85;;;;;;;6.53;100.00;102821.50;6337153;22;20050;-78
2022/01/17 08:43:00;;;;;;;33.97;6.03;;;;;;;6.56;100.00;102821.66;6363714;22;20018;-78
2022/01/17 08:45:29;;;;;;;37.95;6.90;;;;;;;6.60;100.00;102836.72;6331502;22;20025;-78
2022/01/17 08:48:12;;;;;;;41.60;7.00;;;;;;;6.64;100.00;102835.16;6308571;22;20015;-78
2022/01/17 08:50:43;;;;;;;44.67;7.35;;;;;;;6.70;100.00;102842.44;6308446;22;20014;-79
2022/01/17 08:53:15;;;;;;;35.00;7.30;;;;;;;6.74;100.00;102852.25;6340024;22;20014;-77
2022/01/17 08:55:45;;;;;;;41.45;7.63;;;;;;;6.79;100.00;102850.75;6323503;22;20025;-78
2022/01/17 08:58:14;;;;;;;40.00;7.37;;;;;;;6.81;100.00;102844.75;6302618;22;20255;-78
2022/01/17 09:00:44;;;;;;;39.47;7.40;;;;;;;6.83;100.00;102850.97;6304837;22;20029;-77
2022/01/17 09:03:21;;;;;;;46.13;8.60;;;;;;;6.85;100.00;102835.34;6299469;22;20306;-77
2022/01/17 09:05:52;;;;;;;45.42;7.82;;;;;;;6.86;100.00;102852.84;6364529;22;20014;-77
2022/01/17 09:08:22;;;;;;;34.38;5.75;;;;;;;6.89;100.00;102846.88;6323895;22;20018;-77
2022/01/17 09:10:55;;;;;;;55.78;8.32;;;;;;;6.92;100.00;102837.44;6336551;22;20021;-77
2022/01/17 09:13:25;;;;;;;40.95;8.65;;;;;;;6.94;100.00;102837.53;6278395;22;20022;-78
2022/01/17 09:15:54;;;;;;;42.35;7.85;;;;;;;6.95;100.00;102824.47;6331028;22;20018;-78
2022/01/17 09:18:24;;;;;;;36.70;6.80;;;;;;;6.97;100.00;102849.03;6337702;22;20018;-78
2022/01/17 09:20:53;;;;;;;36.92;8.05;;;;;;;7.00;100.00;102854.44;6339646;22;20014;-77
2022/01/17 09:23:21;;;;;;;50.58;7.57;;;;;;;7.03;100.00;102845.81;6321663;22;20018;-78
2022/01/17 09:25:51;;;;;;;48.88;8.23;;;;;;;7.06;100.00;102855.59;6364213;22;20018;-77
2022/01/17 09:28:20;;;;;;;46.85;8.82;;;;;;;7.07;100.00;102862.63;6327984;22;20620;-77
2022/01/17 09:30:50;;;;;;;53.78;7.55;;;;;;;7.09;100.00;102867.13;6341081;22;20022;-77
2022/01/17 09:33:19;;;;;;;43.67;7.78;;;;;;;7.10;100.00;102871.53;6232945;22;20142;-78
2022/01/17 09:35:48;;;;;;;47.40;7.50;;;;;;;7.11;100.00;102867.22;6302902;22;20024;-78
2022/01/17 09:38:18;;;;;;;36.65;6.75;;;;;;;7.12;100.00;102872.50;6269651;22;20467;-78
2022/01/17 09:40:47;;;;;;;42.15;6.95;;;;;;;7.13;100.00;102863.81;6278522;22;20531;-78
2022/01/17 09:43:36;;;;;;;53.53;7.60;;;;;;;7.15;100.00;102871.78;6349130;22;20072;-78
2022/01/17 09:46:06;;;;;;;38.35;7.43;;;;;;;7.17;100.00;102875.38;6296353;22;20022;-78
2022/01/17 09:48:38;;;;;;;59.75;9.63;;;;;;;7.17;100.00;102878.00;6363965;22;20014;-77
2022/01/17 09:51:37;;;;;;;43.35;7.35;;;;;;;7.21;100.00;102895.66;6327149;22;20018;-80
2022/01/17 09:53:59;;;;;;;52.22;7.57;;;;;;;7.22;100.00;102901.00;6361180;22;20466;-79
2022/01/17 09:56:30;;;;;;;49.75;8.90;;;;;;;7.26;100.00;102922.13;6336778;22;20360;-78
2022/01/17 09:58:59;;;;;;;35.42;7.13;;;;;;;7.28;100.00;102912.59;6340569;22;20021;-79
2022/01/17 10:01:30;;;;;;;44.95;7.60;;;;;;;7.30;100.00;102922.34;6318845;22;20025;-78
2022/01/17 10:04:02;;;;;;;53.55;8.98;;;;;;;7.33;100.00;102929.47;6316755;22;20022;-79
2022/01/17 10:06:31;;;;;;;52.95;8.98;;;;;;;7.37;100.00;102924.47;6336453;22;20025;-80
2022/01/17 10:09:31;;;;;;;47.85;8.60;;;;;;;7.41;100.00;102942.16;6312872;22;20017;-80
2022/01/17 10:12:03;;;;;;;37.75;6.93;;;;;;;7.45;100.00;102935.34;6347005;22;20022;-78
2022/01/17 10:14:37;;;;;;;49.30;9.60;;;;;;;7.50;100.00;102936.44;6306121;22;20026;-79
2022/01/17 10:17:17;;;;;;;49.17;8.35;;;;;;;7.51;100.00;102940.88;6346956;22;20022;-78
2022/01/17 10:19:59;;;;;;;48.00;9.32;;;;;;;7.53;100.00;102943.59;6320547;22;20033;-78
2022/01/17 10:22:40;;;;;;;47.90;10.18;;;;;;;7.52;100.00;102937.41;6328590;22;20007;-79
2022/01/17 10:25:29;;;;;;;64.50;9.93;;;;;;;7.54;100.00;102964.66;6340850;22;20022;-79
2022/01/17 10:28:47;;;;;;;60.55;10.00;;;;;;;7.53;100.00;102960.22;6342263;22;20025;-79
2022/01/17 10:36:56;;;;;;;57.00;9.93;;;;;;;7.55;100.00;102963.81;6313509;22;20435;-78
2022/01/17 10:39:25;;;;;;;59.17;8.82;;;;;;;7.53;100.00;102961.94;6369370;22;20037;-78
2022/01/17 10:41:53;;;;;;;49.80;8.77;;;;;;;7.53;100.00;102952.34;6337979;22;20202;-78
2022/01/17 10:44:37;;;;;;;46.78;9.98;;;;;;;7.54;100.00;102962.03;6315182;22;20344;-79
2022/01/17 10:47:24;;;;;;;54.55;8.50;;;;;;;7.56;100.00;102964.69;6307685;22;20030;-79
2022/01/17 10:49:55;;;;;;;56.75;9.77;;;;;;;7.58;100.00;102947.31;6354275;22;20321;-78
2022/01/17 10:52:31;;;;;;;53.35;9.65;;;;;;;7.59;100.00;102955.25;6355964;22;20014;-78
2022/01/17 10:55:27;;;;;;;51.28;9.73;;;;;;;7.61;100.00;102955.34;6341725;22;20022;-78
2022/01/17 10:58:02;;;;;;;59.15;9.95;;;;;;;7.64;100.00;102949.34;6363676;22;20100;-79
2022/01/17 11:00:43;;;;;;;52.83;9.40;;;;;;;7.66;100.00;102959.09;6290563;22;20033;-78
2022/01/17 11:03:22;;;;;;;60.88;11.10;;;;;;;7.67;100.00;102976.63;6338405;22;20011;-79
2022/01/17 11:05:53;;;;;;;54.78;9.57;;;;;;;7.70;100.00;102982.03;6300134;22;20147;-78
2022/01/17 11:08:24;;;;;;;62.83;10.13;;;;;;;7.70;100.00;103000.41;6280312;22;20022;-78
2022/01/17 11:11:01;;;;;;;62.15;10.82;;;;;;;7.72;100.00;103021.50;6330588;22;20065;-79
2022/01/17 11:13:32;;;;;;;66.78;9.85;;;;;;;7.71;100.00;103023.22;6369555;22;20348;-78
2022/01/17 11:16:12;;;;;;;64.15;10.73;;;;;;;7.70;100.00;103010.91;6372331;22;20014;-79
2022/01/17 11:18:45;;;;;;;48.05;9.85;;;;;;;7.69;100.00;103010.81;6328684;22;20489;-78
2022/01/17 11:21:17;;;;;;;63.60;11.88;;;;;;;7.67;100.00;103013.38;6316523;22;20020;-78
2022/01/17 11:23:48;;;;;;;65.60;10.40;;;;;;;7.66;100.00;103024.72;6333103;22;20018;-78
2022/01/17 11:26:18;;;;;;;66.22;10.68;;;;;;;7.66;100.00;103006.34;6338626;22;20018;-79
2022/01/17 11:28:49;;;;;;;64.85;10.82;;;;;;;7.67;100.00;103010.75;6283149;22;20022;-79
2022/01/17 11:31:17;;;;;;;63.58;10.32;;;;;;;7.70;100.00;103010.91;6337953;22;20022;-78
2022/01/17 11:33:46;;;;;;;60.20;10.60;;;;;;;7.72;100.00;103014.50;6279590;22;20663;-79
2022/01/17 11:36:16;;;;;;;65.65;9.07;;;;;;;7.76;100.00;102994.56;6320260;22;20023;-79
2022/01/17 11:38:49;;;;;;;62.20;10.77;;;;;;;7.78;100.00;102995.53;6363679;22;20227;-79
2022/01/17 11:41:27;;;;;;;64.90;9.90;;;;;;;7.78;100.00;102983.31;6305754;22;20244;-80
2022/01/17 11:44:06;;;;;;;59.65;10.30;;;;;;;7.86;100.00;102990.66;6317949;22;20011;-78
2022/01/17 11:46:50;;;;;;;57.13;10.40;;;;;;;7.89;100.00;102990.81;6342149;22;20018;-78
2022/01/17 11:49:35;;;;;;;71.85;11.32;;;;;;;7.90;100.00;102992.59;6316409;22;20014;-79
2022/01/17 11:52:10;;;;;;;52.70;10.45;;;;;;;7.88;100.00;103012.63;6272223;22;20077;-79
2022/01/17 11:54:44;;;;;;;58.65;10.18;;;;;;;7.86;100.00;103028.31;6331482;22;20219;-77